sensor_id;sensor_type;location;lat;lon;timestamp;pressure;altitude;pressure_sealevel;temperature;humidity
53550;BME280;67273;52.914;-0.982;2023-05-11T00:01:37;101012.28;;;19.27;52.14
53550;BME280;67273;52.914;-0.982;2023-05-11T00:04:04;101013.09;;;19.27;51.93
53550;BME280;67273;52.914;-0.982;2023-05-11T00:06:30;101013.34;;;19.26;52.08
53550;BME280;67273;52.914;-0.982;2023-05-11T00:08:56;101012.28;;;19.27;51.95
53550;BME280;67273;52.914;-0.982;2023-05-11T00:11:22;101019.88;;;19.25;52.03
53550;BME280;67273;52.914;-0.982;2023-05-11T00:13:48;101014.41;;;19.25;51.99
53550;BME280;67273;52.914;-0.982;2023-05-11T00:16:13;101019.88;;;19.25;52.02
53550;BME280;67273;52.914;-0.982;2023-05-11T00:18:40;101013.59;;;19.24;51.93
53550;BME280;67273;52.914;-0.982;2023-05-11T00:21:07;101019.03;;;19.24;51.99
53550;BME280;67273;52.914;-0.982;2023-05-11T00:23:33;101017.13;;;19.25;51.89
53550;BME280;67273;52.914;-0.982;2023-05-11T00:25:58;101019.03;;;19.24;51.98
53550;BME280;67273;52.914;-0.982;2023-05-11T00:28:24;101019.28;;;19.23;51.84
53550;BME280;67273;52.914;-0.982;2023-05-11T00:30:54;101016.53;;;19.23;51.91
53550;BME280;67273;52.914;-0.982;2023-05-11T00:33:20;101021.16;;;19.22;51.91
53550;BME280;67273;52.914;-0.982;2023-05-11T00:35:45;101017.59;;;19.22;51.99
53550;BME280;67273;52.914;-0.982;2023-05-11T00:38:15;101025.78;;;19.22;51.88
53550;BME280;67273;52.914;-0.982;2023-05-11T00:40:41;101024.94;;;19.21;51.91
53550;BME280;67273;52.914;-0.982;2023-05-11T00:43:07;101029.56;;;19.21;51.80
53550;BME280;67273;52.914;-0.982;2023-05-11T00:45:33;101026.84;;;19.21;51.86
53550;BME280;67273;52.914;-0.982;2023-05-11T00:48:00;101023.28;;;19.20;51.80
53550;BME280;67273;52.914;-0.982;2023-05-11T00:50:26;101029.56;;;19.21;51.87
53550;BME280;67273;52.914;-0.982;2023-05-11T00:52:52;101028.72;;;19.20;51.93
53550;BME280;67273;52.914;-0.982;2023-05-11T00:55:19;101033.34;;;19.19;52.22
53550;BME280;67273;52.914;-0.982;2023-05-11T00:57:45;101026.22;;;19.18;51.85
53550;BME280;67273;52.914;-0.982;2023-05-11T01:00:12;101031.69;;;19.18;51.90
53550;BME280;67273;52.914;-0.982;2023-05-11T01:02:38;101026.22;;;19.18;51.81
53550;BME280;67273;52.914;-0.982;2023-05-11T01:05:05;101039.84;;;19.18;51.90
53550;BME280;67273;52.914;-0.982;2023-05-11T01:07:36;101045.28;;;19.18;51.90
53550;BME280;67273;52.914;-0.982;2023-05-11T01:10:08;101040.94;;;19.17;51.94
53550;BME280;67273;52.914;-0.982;2023-05-11T01:12:45;101040.94;;;19.17;51.84
53550;BME280;67273;52.914;-0.982;2023-05-11T01:15:17;101039.25;;;19.16;51.77
53550;BME280;67273;52.914;-0.982;2023-05-11T01:17:52;101038.22;;;19.17;51.91
53550;BME280;67273;52.914;-0.982;2023-05-11T01:20:24;101040.94;;;19.17;51.77
53550;BME280;67273;52.914;-0.982;2023-05-11T01:23:23;101034.66;;;19.17;51.78
53550;BME280;67273;52.914;-0.982;2023-05-11T01:26:06;101039.25;;;19.16;51.89
53550;BME280;67273;52.914;-0.982;2023-05-11T01:28:54;101039.25;;;19.16;51.89
53550;BME280;67273;52.914;-0.982;2023-05-11T01:31:29;101038.44;;;19.16;51.76
53550;BME280;67273;52.914;-0.982;2023-05-11T01:33:59;101043.06;;;19.15;51.84
53550;BME280;67273;52.914;-0.982;2023-05-11T01:36:29;101046.84;;;19.14;51.80
53550;BME280;67273;52.914;-0.982;2023-05-11T01:39:00;101038.06;;;19.12;51.84
53550;BME280;67273;52.914;-0.982;2023-05-11T01:41:27;101044.34;;;19.13;51.78
53550;BME280;67273;52.914;-0.982;2023-05-11T01:43:56;101040.78;;;19.12;51.65
53550;BME280;67273;52.914;-0.982;2023-05-11T01:46:25;101048.97;;;19.12;51.86
53550;BME280;67273;52.914;-0.982;2023-05-11T01:48:55;101051.09;;;19.10;51.89
53550;BME280;67273;52.914;-0.982;2023-05-11T01:51:22;101054.63;;;19.11;51.79
53550;BME280;67273;52.914;-0.982;2023-05-11T01:53:52;101054.88;;;19.09;51.83
53550;BME280;67273;52.914;-0.982;2023-05-11T01:56:20;101057.59;;;19.09;51.90
53550;BME280;67273;52.914;-0.982;2023-05-11T01:58:49;101053.22;;;19.08;51.86
53550;BME280;67273;52.914;-0.982;2023-05-11T02:01:20;101057.00;;;19.07;51.85
53550;BME280;67273;52.914;-0.982;2023-05-11T02:03:48;101057.00;;;19.07;51.96
53550;BME280;67273;52.914;-0.982;2023-05-11T02:06:19;101055.34;;;19.06;51.91
53550;BME280;67273;52.914;-0.982;2023-05-11T02:08:47;101067.06;;;19.07;51.85
53550;BME280;67273;52.914;-0.982;2023-05-11T02:11:15;101060.81;;;19.06;51.77
53550;BME280;67273;52.914;-0.982;2023-05-11T02:13:44;101061.84;;;19.05;51.74
53550;BME280;67273;52.914;-0.982;2023-05-11T02:16:11;101063.53;;;19.06;51.83
53550;BME280;67273;52.914;-0.982;2023-05-11T02:18:39;101075.47;;;19.05;51.82
53550;BME280;67273;52.914;-0.982;2023-05-11T02:21:08;101063.97;;;19.03;51.89
53550;BME280;67273;52.914;-0.982;2023-05-11T02:23:36;101067.53;;;19.04;51.78
53550;BME280;67273;52.914;-0.982;2023-05-11T02:26:05;101069.19;;;19.05;51.75
53550;BME280;67273;52.914;-0.982;2023-05-11T02:28:32;101072.16;;;19.03;51.73
53550;BME280;67273;52.914;-0.982;2023-05-11T02:31:01;101077.59;;;19.03;51.75
53550;BME280;67273;52.914;-0.982;2023-05-11T02:33:34;101073.19;;;19.02;51.73
53550;BME280;67273;52.914;-0.982;2023-05-11T02:36:01;101079.25;;;19.04;51.73
53550;BME280;67273;52.914;-0.982;2023-05-11T02:38:33;101073.19;;;19.02;51.67
53550;BME280;67273;52.914;-0.982;2023-05-11T02:41:10;101081.38;;;19.02;51.75
53550;BME280;67273;52.914;-0.982;2023-05-11T02:43:43;101081.59;;;19.00;51.83
53550;BME280;67273;52.914;-0.982;2023-05-11T02:46:14;101083.50;;;19.00;51.76
53550;BME280;67273;52.914;-0.982;2023-05-11T02:48:43;101082.69;;;18.99;51.76
53550;BME280;67273;52.914;-0.982;2023-05-11T02:51:15;101082.09;;;18.97;51.76
53550;BME280;67273;52.914;-0.982;2023-05-11T02:53:47;101084.56;;;18.99;51.62
53550;BME280;67273;52.914;-0.982;2023-05-11T02:56:16;101079.09;;;18.99;51.77
53550;BME280;67273;52.914;-0.982;2023-05-11T02:58:43;101084.56;;;18.99;51.63
53550;BME280;67273;52.914;-0.982;2023-05-11T03:01:21;101090.00;;;18.99;51.68
53550;BME280;67273;52.914;-0.982;2023-05-11T03:03:47;101081.00;;;18.98;51.81
53550;BME280;67273;52.914;-0.982;2023-05-11T03:06:16;101083.72;;;18.98;51.83
53550;BME280;67273;52.914;-0.982;2023-05-11T03:08:46;101086.22;;;19.00;51.71
53550;BME280;67273;52.914;-0.982;2023-05-11T03:11:18;101084.56;;;18.99;51.76
53550;BME280;67273;52.914;-0.982;2023-05-11T03:13:46;101087.28;;;18.99;51.71
53550;BME280;67273;52.914;-0.982;2023-05-11T03:16:14;101082.69;;;18.99;51.74
53550;BME280;67273;52.914;-0.982;2023-05-11T03:18:41;101086.44;;;18.98;51.68
53550;BME280;67273;52.914;-0.982;2023-05-11T03:21:07;101094.63;;;18.98;51.58
53550;BME280;67273;52.914;-0.982;2023-05-11T03:23:34;101085.63;;;18.98;51.71
53550;BME280;67273;52.914;-0.982;2023-05-11T03:26:00;101088.34;;;18.98;51.66
53550;BME280;67273;52.914;-0.982;2023-05-11T03:28:29;101083.94;;;18.97;51.66
53550;BME280;67273;52.914;-0.982;2023-05-11T03:31:00;101092.13;;;18.97;51.62
53550;BME280;67273;52.914;-0.982;2023-05-11T03:33:26;101083.94;;;18.97;51.69
53550;BME280;67273;52.914;-0.982;2023-05-11T03:35:52;101082.31;;;18.96;51.63
53550;BME280;67273;52.914;-0.982;2023-05-11T03:38:21;101082.31;;;18.96;51.67
53550;BME280;67273;52.914;-0.982;2023-05-11T03:40:51;101088.56;;;18.96;51.69
53550;BME280;67273;52.914;-0.982;2023-05-11T03:43:19;101085.03;;;18.96;51.57
53550;BME280;67273;52.914;-0.982;2023-05-11T03:45:50;101085.03;;;18.96;51.54
53550;BME280;67273;52.914;-0.982;2023-05-11T03:48:18;101086.09;;;18.95;51.59
53550;BME280;67273;52.914;-0.982;2023-05-11T03:50:45;101081.47;;;18.95;51.58
53550;BME280;67273;52.914;-0.982;2023-05-11T03:53:12;101086.09;;;18.95;51.54
53550;BME280;67273;52.914;-0.982;2023-05-11T03:55:39;101085.25;;;18.94;51.56
53550;BME280;67273;52.914;-0.982;2023-05-11T03:58:06;101085.25;;;18.94;51.64
53550;BME280;67273;52.914;-0.982;2023-05-11T04:00:32;101086.09;;;18.95;51.55
53550;BME280;67273;52.914;-0.982;2023-05-11T04:03:02;101082.75;;;18.93;51.53
53550;BME280;67273;52.914;-0.982;2023-05-11T04:05:29;101090.72;;;18.94;51.64
53550;BME280;67273;52.914;-0.982;2023-05-11T04:07:54;101082.75;;;18.93;51.61
53550;BME280;67273;52.914;-0.982;2023-05-11T04:10:20;101086.31;;;18.93;51.56
53550;BME280;67273;52.914;-0.982;2023-05-11T04:12:47;101093.66;;;18.93;51.51
53550;BME280;67273;52.914;-0.982;2023-05-11T04:15:13;101086.31;;;18.93;51.32
53550;BME280;67273;52.914;-0.982;2023-05-11T04:17:39;101091.97;;;18.92;51.67
53550;BME280;67273;52.914;-0.982;2023-05-11T04:20:09;101097.44;;;18.92;51.57
53550;BME280;67273;52.914;-0.982;2023-05-11T04:22:35;101097.44;;;18.92;51.56
53550;BME280;67273;52.914;-0.982;2023-05-11T04:25:01;101097.44;;;18.92;51.65
53550;BME280;67273;52.914;-0.982;2023-05-11T04:27:27;101097.44;;;18.92;51.48
53550;BME280;67273;52.914;-0.982;2023-05-11T04:29:56;101097.44;;;18.92;51.66
53550;BME280;67273;52.914;-0.982;2023-05-11T04:32:22;101101.22;;;18.91;51.56
53550;BME280;67273;52.914;-0.982;2023-05-11T04:34:48;101094.69;;;18.92;51.48
53550;BME280;67273;52.914;-0.982;2023-05-11T04:37:19;101093.06;;;18.91;51.61
53550;BME280;67273;52.914;-0.982;2023-05-11T04:39:45;101102.88;;;18.92;51.63
53550;BME280;67273;52.914;-0.982;2023-05-11T04:42:12;101101.22;;;18.91;51.60
53550;BME280;67273;52.914;-0.982;2023-05-11T04:44:37;101097.91;;;18.89;51.55
53550;BME280;67273;52.914;-0.982;2023-05-11T04:47:05;101105.84;;;18.90;51.39
53550;BME280;67273;52.914;-0.982;2023-05-11T04:49:31;101102.28;;;18.90;51.57
53550;BME280;67273;52.914;-0.982;2023-05-11T04:51:56;101108.56;;;18.90;51.46
53550;BME280;67273;52.914;-0.982;2023-05-11T04:54:23;101106.66;;;18.91;51.44
53550;BME280;67273;52.914;-0.982;2023-05-11T04:56:49;101102.28;;;18.90;51.55
53550;BME280;67273;52.914;-0.982;2023-05-11T04:59:15;101106.66;;;18.91;51.43
53550;BME280;67273;52.914;-0.982;2023-05-11T05:01:41;101105.00;;;18.90;51.59
53550;BME280;67273;52.914;-0.982;2023-05-11T05:04:06;101113.16;;;18.90;51.45
53550;BME280;67273;52.914;-0.982;2023-05-11T05:06:32;101111.28;;;18.90;51.51
53550;BME280;67273;52.914;-0.982;2023-05-11T05:08:58;101115.88;;;18.90;51.46
53550;BME280;67273;52.914;-0.982;2023-05-11T05:11:25;101113.16;;;18.90;51.49
53550;BME280;67273;52.914;-0.982;2023-05-11T05:13:51;101115.06;;;18.89;51.57
53550;BME280;67273;52.914;-0.982;2023-05-11T05:16:17;101123.00;;;18.91;51.49
53550;BME280;67273;52.914;-0.982;2023-05-11T05:18:43;101124.06;;;18.90;51.51
53550;BME280;67273;52.914;-0.982;2023-05-11T05:21:09;101124.06;;;18.90;51.42
53550;BME280;67273;52.914;-0.982;2023-05-11T05:23:35;101121.34;;;18.90;51.37
53550;BME280;67273;52.914;-0.982;2023-05-11T05:26:01;101123.22;;;18.89;51.42
53550;BME280;67273;52.914;-0.982;2023-05-11T05:28:29;101127.84;;;18.89;51.38
53550;BME280;67273;52.914;-0.982;2023-05-11T05:30:55;101129.50;;;18.90;51.39
53550;BME280;67273;52.914;-0.982;2023-05-11T05:33:21;101135.81;;;18.90;51.32
53550;BME280;67273;52.914;-0.982;2023-05-11T05:35:47;101144.78;;;18.91;51.38
53550;BME280;67273;52.914;-0.982;2023-05-11T05:38:14;101139.34;;;18.91;51.46
53550;BME280;67273;52.914;-0.982;2023-05-11T05:40:40;101139.34;;;18.91;51.39
53550;BME280;67273;52.914;-0.982;2023-05-11T05:43:07;101136.84;;;18.89;51.38
53550;BME280;67273;52.914;-0.982;2023-05-11T05:45:34;101140.16;;;18.91;51.39
53550;BME280;67273;52.914;-0.982;2023-05-11T05:48:00;101139.34;;;18.91;51.45
53550;BME280;67273;52.914;-0.982;2023-05-11T05:50:26;101151.88;;;18.92;51.43
53550;BME280;67273;52.914;-0.982;2023-05-11T05:52:52;101153.78;;;18.91;51.49
53550;BME280;67273;52.914;-0.982;2023-05-11T05:55:20;101152.72;;;18.92;51.45
53550;BME280;67273;52.914;-0.982;2023-05-11T05:57:49;101157.31;;;18.92;51.29
53550;BME280;67273;52.914;-0.982;2023-05-11T06:00:15;101154.59;;;18.92;51.39
53550;BME280;67273;52.914;-0.982;2023-05-11T06:02:42;101156.28;;;18.93;51.24
53550;BME280;67273;52.914;-0.982;2023-05-11T06:05:17;101155.59;;;18.97;51.39
53550;BME280;67273;52.914;-0.982;2023-05-11T06:07:43;101158.06;;;18.99;51.26
53550;BME280;67273;52.914;-0.982;2023-05-11T06:10:09;101156.56;;;19.03;51.12
53550;BME280;67273;52.914;-0.982;2023-05-11T06:12:34;101160.94;;;19.04;51.03
53550;BME280;67273;52.914;-0.982;2023-05-11T06:15:01;101156.72;;;19.08;51.04
53550;BME280;67273;52.914;-0.982;2023-05-11T06:17:32;101165.25;;;19.12;50.99
53550;BME280;67273;52.914;-0.982;2023-05-11T06:20:00;101162.06;;;19.15;50.89
53550;BME280;67273;52.914;-0.982;2023-05-11T06:22:31;101167.88;;;19.18;50.86
53550;BME280;67273;52.914;-0.982;2023-05-11T06:24:59;101177.50;;;19.21;50.78
53550;BME280;67273;52.914;-0.982;2023-05-11T06:27:27;101175.97;;;19.25;50.61
53550;BME280;67273;52.914;-0.982;2023-05-11T06:30:00;101173.59;;;19.29;50.71
53550;BME280;67273;52.914;-0.982;2023-05-11T06:32:32;101174.19;;;19.31;50.48
53550;BME280;67273;52.914;-0.982;2023-05-11T06:35:00;101170.19;;;19.33;50.62
53550;BME280;67273;52.914;-0.982;2023-05-11T06:37:28;101170.78;;;19.35;50.83
53550;BME280;67273;52.914;-0.982;2023-05-11T06:39:53;101176.00;;;19.37;50.57
53550;BME280;67273;52.914;-0.982;2023-05-11T06:42:20;101178.88;;;19.42;52.01
53550;BME280;67273;52.914;-0.982;2023-05-11T06:44:47;101184.34;;;19.42;51.82
53550;BME280;67273;52.914;-0.982;2023-05-11T06:47:14;101188.09;;;19.41;51.98
53550;BME280;67273;52.914;-0.982;2023-05-11T06:49:40;101187.06;;;19.42;51.78
53550;BME280;67273;52.914;-0.982;2023-05-11T06:52:08;101180.53;;;19.43;52.14
53550;BME280;67273;52.914;-0.982;2023-05-11T06:54:35;101189.56;;;19.44;51.92
53550;BME280;67273;52.914;-0.982;2023-05-11T06:57:02;101183.84;;;19.45;52.29
53550;BME280;67273;52.914;-0.982;2023-05-11T06:59:33;101184.22;;;19.49;53.33
53550;BME280;67273;52.914;-0.982;2023-05-11T07:02:00;101181.63;;;19.24;52.93
53550;BME280;67273;52.914;-0.982;2023-05-11T07:04:26;101184.97;;;19.26;52.83
53550;BME280;67273;52.914;-0.982;2023-05-11T07:06:54;101183.50;;;18.74;54.04
53550;BME280;67273;52.914;-0.982;2023-05-11T07:09:21;101183.47;;;19.11;53.95
53550;BME280;67273;52.914;-0.982;2023-05-11T07:11:47;101192.56;;;19.05;53.25
53550;BME280;67273;52.914;-0.982;2023-05-11T07:14:13;101191.41;;;19.31;54.42
53550;BME280;67273;52.914;-0.982;2023-05-11T07:16:38;101188.38;;;19.51;53.81
53550;BME280;67273;52.914;-0.982;2023-05-11T07:19:04;101187.81;;;19.61;54.00
53550;BME280;67273;52.914;-0.982;2023-05-11T07:21:30;101192.56;;;19.66;53.90
53550;BME280;67273;52.914;-0.982;2023-05-11T07:23:59;101188.53;;;19.68;53.96
53550;BME280;67273;52.914;-0.982;2023-05-11T07:26:26;101190.56;;;19.73;53.97
53550;BME280;67273;52.914;-0.982;2023-05-11T07:28:51;101197.88;;;19.79;53.75
53550;BME280;67273;52.914;-0.982;2023-05-11T07:31:17;101194.66;;;19.82;53.71
53550;BME280;67273;52.914;-0.982;2023-05-11T07:33:43;101199.19;;;19.88;53.54
53550;BME280;67273;52.914;-0.982;2023-05-11T07:36:09;101191.59;;;19.90;53.63
53550;BME280;67273;52.914;-0.982;2023-05-11T07:38:36;101199.91;;;19.96;53.38
53550;BME280;67273;52.914;-0.982;2023-05-11T07:41:04;101201.09;;;20.00;53.28
53550;BME280;67273;52.914;-0.982;2023-05-11T07:43:33;101213.19;;;20.04;53.27
53550;BME280;67273;52.914;-0.982;2023-05-11T07:46:00;101206.06;;;20.03;53.36
53550;BME280;67273;52.914;-0.982;2023-05-11T07:48:28;101202.25;;;20.04;53.28
53550;BME280;67273;52.914;-0.982;2023-05-11T07:50:57;101205.63;;;20.06;53.59
53550;BME280;67273;52.914;-0.982;2023-05-11T07:53:24;101205.84;;;20.04;53.42
53550;BME280;67273;52.914;-0.982;2023-05-11T07:55:49;101201.09;;;20.00;53.38
53550;BME280;67273;52.914;-0.982;2023-05-11T07:58:15;101205.72;;;19.99;53.60
53550;BME280;67273;52.914;-0.982;2023-05-11T08:00:44;101209.84;;;20.02;53.61
53550;BME280;67273;52.914;-0.982;2023-05-11T08:03:12;101212.34;;;20.03;54.24
53550;BME280;67273;52.914;-0.982;2023-05-11T08:05:38;101209.41;;;20.05;54.59
53550;BME280;67273;52.914;-0.982;2023-05-11T08:08:06;101218.16;;;20.07;55.02
53550;BME280;67273;52.914;-0.982;2023-05-11T08:10:34;101218.53;;;20.10;54.95
53550;BME280;67273;52.914;-0.982;2023-05-11T08:13:00;101222.69;;;20.13;55.00
53550;BME280;67273;52.914;-0.982;2023-05-11T08:15:26;101220.56;;;20.15;55.01
53550;BME280;67273;52.914;-0.982;2023-05-11T08:17:53;101222.69;;;20.13;55.44
53550;BME280;67273;52.914;-0.982;2023-05-11T08:20:19;101216.63;;;20.11;55.62
53550;BME280;67273;52.914;-0.982;2023-05-11T08:22:45;101228.16;;;20.13;55.93
53550;BME280;67273;52.914;-0.982;2023-05-11T08:25:11;101226.47;;;20.12;55.37
53550;BME280;67273;52.914;-0.982;2023-05-11T08:27:38;101225.66;;;20.11;54.89
53550;BME280;67273;52.914;-0.982;2023-05-11T08:30:05;101234.34;;;20.20;54.91
53550;BME280;67273;52.914;-0.982;2023-05-11T08:32:32;101229.47;;;20.22;55.14
53550;BME280;67273;52.914;-0.982;2023-05-11T08:35:01;101230.06;;;20.24;54.88
53550;BME280;67273;52.914;-0.982;2023-05-11T08:37:27;101232.78;;;20.24;54.77
53550;BME280;67273;52.914;-0.982;2023-05-11T08:39:54;101231.47;;;20.27;54.79
53550;BME280;67273;52.914;-0.982;2023-05-11T08:42:24;101236.69;;;20.28;54.81
53550;BME280;67273;52.914;-0.982;2023-05-11T08:44:54;101232.09;;;20.29;54.55
53550;BME280;67273;52.914;-0.982;2023-05-11T08:47:22;101235.41;;;20.31;54.29
53550;BME280;67273;52.914;-0.982;2023-05-11T08:49:50;101231.59;;;20.32;54.20
53550;BME280;67273;52.914;-0.982;2023-05-11T08:52:22;101230.31;;;20.35;54.14
53550;BME280;67273;52.914;-0.982;2023-05-11T08:54:50;101236.59;;;20.35;53.96
53550;BME280;67273;52.914;-0.982;2023-05-11T08:57:18;101239.91;;;20.37;53.91
53550;BME280;67273;52.914;-0.982;2023-05-11T08:59:45;101237.91;;;20.32;53.81
53550;BME280;67273;52.914;-0.982;2023-05-11T09:02:17;101239.09;;;20.37;53.97
53550;BME280;67273;52.914;-0.982;2023-05-11T09:04:44;101230.31;;;20.35;54.20
53550;BME280;67273;52.914;-0.982;2023-05-11T09:07:15;101240.13;;;20.36;54.41
53550;BME280;67273;52.914;-0.982;2023-05-11T09:09:44;101226.50;;;20.36;54.49
53550;BME280;67273;52.914;-0.982;2023-05-11T09:12:11;101237.19;;;20.37;54.25
53550;BME280;67273;52.914;-0.982;2023-05-11T09:14:41;101247.03;;;20.38;54.32
53550;BME280;67273;52.914;-0.982;2023-05-11T09:17:11;101242.41;;;20.39;54.24
53550;BME280;67273;52.914;-0.982;2023-05-11T09:19:56;101234.81;;;20.41;54.10
53550;BME280;67273;52.914;-0.982;2023-05-11T09:22:25;101243.56;;;20.43;54.22
53550;BME280;67273;52.914;-0.982;2023-05-11T09:24:53;101244.19;;;20.45;53.95
53550;BME280;67273;52.914;-0.982;2023-05-11T09:27:23;101243.13;;;20.46;53.83
53550;BME280;67273;52.914;-0.982;2023-05-11T09:29:52;101249.16;;;20.48;53.75
53550;BME280;67273;52.914;-0.982;2023-05-11T09:32:20;101252.75;;;20.48;53.85
53550;BME280;67273;52.914;-0.982;2023-05-11T09:34:48;101244.28;;;20.50;53.79
53550;BME280;67273;52.914;-0.982;2023-05-11T09:37:17;101249.28;;;20.53;53.81
53550;BME280;67273;52.914;-0.982;2023-05-11T09:39:46;101243.81;;;20.53;53.55
53550;BME280;67273;52.914;-0.982;2023-05-11T09:42:23;101242.19;;;20.52;53.62
53550;BME280;67273;52.914;-0.982;2023-05-11T09:44:51;101238.00;;;20.49;53.97
53550;BME280;67273;52.914;-0.982;2023-05-11T09:47:20;101249.03;;;20.43;54.06
53550;BME280;67273;52.914;-0.982;2023-05-11T09:49:51;101244.41;;;20.31;54.46
53550;BME280;67273;52.914;-0.982;2023-05-11T09:52:18;101247.16;;;20.31;54.78
53550;BME280;67273;52.914;-0.982;2023-05-11T09:54:49;101243.81;;;20.53;55.79
53550;BME280;67273;52.914;-0.982;2023-05-11T09:57:25;101251.22;;;20.64;55.51
53550;BME280;67273;52.914;-0.982;2023-05-11T09:59:55;101244.44;;;20.67;55.53
53550;BME280;67273;52.914;-0.982;2023-05-11T10:02:25;101249.22;;;20.72;55.37
53550;BME280;67273;52.914;-0.982;2023-05-11T10:04:54;101248.13;;;20.73;55.10
53550;BME280;67273;52.914;-0.982;2023-05-11T10:07:25;101247.88;;;20.74;55.01
53550;BME280;67273;52.914;-0.982;2023-05-11T10:09:54;101243.84;;;20.77;54.54
53550;BME280;67273;52.914;-0.982;2023-05-11T10:12:24;101244.19;;;20.80;54.61
53550;BME280;67273;52.914;-0.982;2023-05-11T10:14:53;101252.75;;;20.84;54.46
53550;BME280;67273;52.914;-0.982;2023-05-11T10:17:19;101246.22;;;20.85;54.33
53550;BME280;67273;52.914;-0.982;2023-05-11T10:19:45;101251.19;;;20.88;54.14
53550;BME280;67273;52.914;-0.982;2023-05-11T10:22:12;101244.41;;;20.91;54.05
53550;BME280;67273;52.914;-0.982;2023-05-11T10:24:40;101242.25;;;20.93;53.98
53550;BME280;67273;52.914;-0.982;2023-05-11T10:27:07;101247.72;;;20.93;53.87
53550;BME280;67273;52.914;-0.982;2023-05-11T10:29:34;101246.44;;;20.95;53.87
53550;BME280;67273;52.914;-0.982;2023-05-11T10:32:02;101240.72;;;20.97;53.95
53550;BME280;67273;52.914;-0.982;2023-05-11T10:34:30;101244.63;;;21.01;53.69
53550;BME280;67273;52.914;-0.982;2023-05-11T10:37:00;101241.19;;;21.05;53.62
53550;BME280;67273;52.914;-0.982;2023-05-11T10:39:28;101241.78;;;21.07;53.50
53550;BME280;67273;52.914;-0.982;2023-05-11T10:42:05;101240.69;;;21.08;53.25
53550;BME280;67273;52.914;-0.982;2023-05-11T10:45:06;101243.19;;;21.10;53.22
53550;BME280;67273;52.914;-0.982;2023-05-11T10:47:50;101241.03;;;21.12;53.09
53550;BME280;67273;52.914;-0.982;2023-05-11T10:50:38;101243.53;;;21.14;52.77
53550;BME280;67273;52.914;-0.982;2023-05-11T10:53:24;101240.78;;;21.14;53.01
53550;BME280;67273;52.914;-0.982;2023-05-11T10:56:05;101239.50;;;21.16;52.99
53550;BME280;67273;52.914;-0.982;2023-05-11T10:58:55;101234.84;;;21.17;52.93
53550;BME280;67273;52.914;-0.982;2023-05-11T11:01:43;101240.66;;;21.20;52.93
53550;BME280;67273;52.914;-0.982;2023-05-11T11:04:11;101240.53;;;21.27;52.74
53550;BME280;67273;52.914;-0.982;2023-05-11T11:06:39;101238.16;;;21.19;53.01
53550;BME280;67273;52.914;-0.982;2023-05-11T11:09:11;101235.56;;;21.12;53.01
53550;BME280;67273;52.914;-0.982;2023-05-11T11:11:39;101235.84;;;21.11;52.78
53550;BME280;67273;52.914;-0.982;2023-05-11T11:14:09;101237.88;;;21.03;53.00
53550;BME280;67273;52.914;-0.982;2023-05-11T11:16:36;101231.22;;;20.99;52.88
53550;BME280;67273;52.914;-0.982;2023-05-11T11:22:04;101240.97;;;20.95;52.79
53550;BME280;67273;52.914;-0.982;2023-05-11T11:24:45;101233.25;;;20.92;52.62
53550;BME280;67273;52.914;-0.982;2023-05-11T11:27:14;101236.81;;;20.93;52.60
53550;BME280;67273;52.914;-0.982;2023-05-11T11:30:15;101231.84;;;20.89;52.58
53550;BME280;67273;52.914;-0.982;2023-05-11T11:32:44;101237.31;;;20.89;52.47
53550;BME280;67273;52.914;-0.982;2023-05-11T11:35:46;101230.41;;;20.87;52.56
53550;BME280;67273;52.914;-0.982;2023-05-11T11:38:18;101232.56;;;20.85;52.49
53550;BME280;67273;52.914;-0.982;2023-05-11T11:40:47;101238.25;;;20.83;52.34
53550;BME280;67273;52.914;-0.982;2023-05-11T11:43:18;101233.63;;;20.84;52.49
53550;BME280;67273;52.914;-0.982;2023-05-11T11:45:54;101235.75;;;20.82;52.38
53550;BME280;67273;52.914;-0.982;2023-05-11T11:48:27;101233.75;;;20.77;52.42
53550;BME280;67273;52.914;-0.982;2023-05-11T11:50:59;101243.00;;;20.76;52.30
53550;BME280;67273;52.914;-0.982;2023-05-11T11:56:39;101239.09;;;20.72;52.37
53550;BME280;67273;52.914;-0.982;2023-05-11T11:59:06;101243.75;;;20.72;52.32
53550;BME280;67273;52.914;-0.982;2023-05-11T12:01:38;101243.13;;;20.69;52.22
53550;BME280;67273;52.914;-0.982;2023-05-11T12:04:16;101236.25;;;20.67;52.11
53550;BME280;67273;52.914;-0.982;2023-05-11T12:06:55;101239.22;;;20.65;52.16
53550;BME280;67273;52.914;-0.982;2023-05-11T12:09:26;101252.88;;;20.65;52.12
53550;BME280;67273;52.914;-0.982;2023-05-11T12:11:54;101241.38;;;20.63;52.12
53550;BME280;67273;52.914;-0.982;2023-05-11T12:14:22;101258.81;;;20.62;51.95
53550;BME280;67273;52.914;-0.982;2023-05-11T12:17:06;101260.09;;;20.60;52.04
53550;BME280;67273;52.914;-0.982;2023-05-11T12:19:41;101258.91;;;20.56;53.25
53550;BME280;67273;52.914;-0.982;2023-05-11T12:22:07;101261.88;;;20.54;54.64
53550;BME280;67273;52.914;-0.982;2023-05-11T12:24:35;101253.19;;;20.57;54.01
53550;BME280;67273;52.914;-0.982;2023-05-11T12:27:04;101265.94;;;20.63;54.19
53550;BME280;67273;52.914;-0.982;2023-05-11T12:29:29;101265.22;;;20.68;54.52
53550;BME280;67273;52.914;-0.982;2023-05-11T12:31:57;101268.56;;;20.70;54.39
53550;BME280;67273;52.914;-0.982;2023-05-11T12:34:22;101257.41;;;20.72;54.29
53550;BME280;67273;52.914;-0.982;2023-05-11T12:36:50;101266.28;;;20.79;54.13
53550;BME280;67273;52.914;-0.982;2023-05-11T12:39:17;101276.13;;;20.80;53.81
53550;BME280;67273;52.914;-0.982;2023-05-11T12:41:44;101293.09;;;20.82;53.89
53550;BME280;67273;52.914;-0.982;2023-05-11T12:44:14;101299.66;;;20.81;53.64
53550;BME280;67273;52.914;-0.982;2023-05-11T12:46:40;101312.47;;;20.80;53.78
53550;BME280;67273;52.914;-0.982;2023-05-11T12:49:06;101318.53;;;20.82;53.75
53550;BME280;67273;52.914;-0.982;2023-05-11T12:51:47;101322.09;;;20.83;53.68
53550;BME280;67273;52.914;-0.982;2023-05-11T12:54:24;101330.28;;;20.83;53.56
53550;BME280;67273;52.914;-0.982;2023-05-11T12:56:50;101316.41;;;20.84;53.69